Time;durP1;ratioP1;P1;durP2;ratioP2;P2;SDS_P1;SDS_P2;PMS_P1;PMS_P2;Temp;Humidity;BMP_temperature;BMP_pressure;BME280_temperature;BME280_humidity;BME280_pressure;Samples;Min_cycle;Max_cycle;Signal;HPM_P1;HPM_P2
2021/05/25 00:01:17;;;;;;;2.58;0.80;;;;;;;;;;5041804;28;20052;-82
2021/05/25 00:03:43;;;;;;;1.83;1.02;;;8.80;99.90;;;;;;5066803;28;20036;-80
2021/05/25 00:06:09;;;;;;;2.80;0.90;;;;;;;;;;5063665;28;20483;-81
2021/05/25 00:08:35;;;;;;;1.90;1.10;;;;;;;;;;5065224;28;20036;-84
2021/05/25 00:11:01;;;;;;;3.83;0.90;;;;;;;;;;5048491;28;20123;-83
2021/05/25 00:13:27;;;;;;;1.65;0.80;;;;;;;;;;5063144;28;20487;-82
2021/05/25 00:15:53;;;;;;;1.83;0.85;;;8.90;99.90;;;;;;5043793;28;20032;-81
2021/05/25 00:18:20;;;;;;;3.13;0.90;;;9.00;99.90;;;;;;5051246;28;20037;-81
2021/05/25 00:20:47;;;;;;;2.53;0.82;;;9.00;99.90;;;;;;5060625;28;20111;-80
2021/05/25 00:23:13;;;;;;;3.13;1.00;;;;;;;;;;5064249;28;20032;-81
2021/05/25 00:25:39;;;;;;;3.22;0.95;;;;;;;;;;5059172;28;20040;-79
2021/05/25 00:28:05;;;;;;;2.78;0.88;;;;;;;;;;5049843;28;20039;-76
2021/05/25 00:30:31;;;;;;;2.40;0.88;;;;;;;;;;5042778;28;20162;-83
2021/05/25 00:32:57;;;;;;;1.70;1.10;;;;;;;;;;5047290;28;20033;-81
2021/05/25 00:35:25;;;;;;;2.05;0.82;;;;;;;;;;5051853;28;20028;-78
2021/05/25 00:37:51;;;;;;;4.13;0.93;;;;;;;;;;5051287;28;20028;-80
2021/05/25 00:40:17;;;;;;;1.38;0.80;;;;;;;;;;5050276;28;20039;-83
2021/05/25 00:42:44;;;;;;;2.42;0.90;;;8.90;99.90;;;;;;5054547;28;20082;-79
2021/05/25 00:45:11;;;;;;;3.15;1.10;;;;;;;;;;5056289;28;20024;-83
2021/05/25 00:47:38;;;;;;;6.13;1.25;;;8.90;99.90;;;;;;5062293;28;20065;-79
2021/05/25 00:50:13;;;;;;;1.40;0.90;;;8.90;99.90;;;;;;5043280;28;20025;-80
2021/05/25 00:52:46;;;;;;;1.42;1.10;;;8.80;99.90;;;;;;5044283;28;20029;-78
2021/05/25 00:55:27;;;;;;;2.75;0.75;;;8.80;99.90;;;;;;5061036;28;20024;-81
2021/05/25 00:57:55;;;;;;;3.00;0.90;;;8.80;99.90;;;;;;5049146;28;20040;-77
2021/05/25 01:00:25;;;;;;;1.33;0.77;;;8.70;99.90;;;;;;5047038;28;20035;-82
2021/05/25 01:02:51;;;;;;;2.50;1.35;;;8.80;99.90;;;;;;5035178;28;20112;-80
2021/05/25 01:05:17;;;;;;;3.55;0.95;;;;;;;;;;5065820;28;20048;-79
2021/05/25 01:07:43;;;;;;;3.03;0.73;;;8.80;99.90;;;;;;5062465;28;20036;-79
2021/05/25 01:10:14;;;;;;;1.92;0.70;;;8.80;99.90;;;;;;5041555;28;20037;-80
2021/05/25 01:12:52;;;;;;;1.00;0.93;;;8.80;99.90;;;;;;5046338;28;20025;-78
2021/05/25 01:15:19;;;;;;;2.10;0.70;;;;;;;;;;5062068;28;20449;-82
2021/05/25 01:17:45;;;;;;;2.70;0.82;;;8.70;99.90;;;;;;5047687;28;20027;-77
2021/05/25 01:20:12;;;;;;;2.90;0.77;;;8.70;99.90;;;;;;5043366;28;20027;-77
2021/05/25 01:22:37;;;;;;;2.53;0.85;;;8.70;99.90;;;;;;5040561;28;20108;-77
2021/05/25 01:25:14;;;;;;;8.55;2.05;;;8.70;99.90;;;;;;5063361;28;20131;-81
2021/05/25 01:27:41;;;;;;;3.78;1.63;;;8.70;99.90;;;;;;5039271;28;20028;-79
2021/05/25 01:30:09;;;;;;;2.25;0.88;;;8.80;99.90;;;;;;5059102;28;20028;-82
2021/05/25 01:32:35;;;;;;;2.97;1.15;;;8.70;99.90;;;;;;5043453;28;20045;-80
2021/05/25 01:35:01;;;;;;;1.67;0.82;;;;;;;;;;5048188;28;20445;-82
2021/05/25 01:37:27;;;;;;;1.88;0.82;;;8.70;99.90;;;;;;5064338;28;20522;-82
2021/05/25 01:39:55;;;;;;;1.75;0.70;;;;;;;;;;5049641;28;20284;-81
2021/05/25 01:42:30;;;;;;;1.52;0.70;;;8.60;99.90;;;;;;5062047;28;20032;-82
2021/05/25 01:44:56;;;;;;;1.85;0.80;;;;;;;;;;5032392;28;20029;-84
2021/05/25 01:47:21;;;;;;;2.33;0.80;;;;;;;;;;5049530;28;20032;-82
2021/05/25 01:49:47;;;;;;;6.10;1.65;;;;;;;;;;5065171;28;20130;-81
2021/05/25 01:52:13;;;;;;;1.08;0.68;;;;;;;;;;5048455;28;20063;-84
2021/05/25 01:54:39;;;;;;;1.88;0.80;;;;;;;;;;5048701;28;20036;-82
2021/05/25 01:57:05;;;;;;;0.82;0.55;;;;;;;;;;5045854;28;20035;-78
2021/05/25 01:59:31;;;;;;;2.13;0.70;;;;;;;;;;5055214;28;20354;-84
2021/05/25 02:01:57;;;;;;;1.85;0.88;;;8.60;99.90;;;;;;5051071;28;20180;-81
2021/05/25 02:04:25;;;;;;;3.20;0.80;;;8.60;99.90;;;;;;5050987;28;20037;-81
2021/05/25 02:06:52;;;;;;;1.88;0.80;;;;;;;;;;5045259;28;20060;-80
2021/05/25 02:09:18;;;;;;;1.77;0.70;;;8.60;99.90;;;;;;5049468;28;20032;-82
2021/05/25 02:11:44;;;;;;;1.60;0.65;;;8.70;99.90;;;;;;5057520;28;20063;-78
2021/05/25 02:14:10;;;;;;;4.00;1.10;;;;;;;;;;5048924;28;20094;-81
2021/05/25 02:16:36;;;;;;;1.13;0.73;;;;;;;;;;5057910;28;20032;-82
2021/05/25 02:19:02;;;;;;;2.33;0.90;;;8.70;99.90;;;;;;5050951;28;20115;-82
2021/05/25 02:21:28;;;;;;;1.08;0.65;;;;;;;;;;5064982;28;20056;-81
2021/05/25 02:23:54;;;;;;;1.90;0.60;;;;;;;;;;5047015;28;20039;-79
2021/05/25 02:26:20;;;;;;;2.08;0.80;;;8.90;99.90;;;;;;5048122;28;20041;-80
2021/05/25 02:28:46;;;;;;;4.13;1.00;;;8.70;99.90;;;;;;5053484;28;20036;-78
2021/05/25 02:31:13;;;;;;;2.28;0.70;;;;;;;;;;5063108;28;20435;-79
2021/05/25 02:33:39;;;;;;;2.22;0.95;;;8.70;99.90;;;;;;5054442;28;20032;-82
2021/05/25 02:36:06;;;;;;;1.45;0.70;;;8.70;99.90;;;;;;5054030;28;20029;-81
2021/05/25 02:38:32;;;;;;;1.92;0.52;;;8.80;99.90;;;;;;5050743;28;20032;-79
2021/05/25 02:40:59;;;;;;;1.15;0.80;;;8.80;99.90;;;;;;5046415;28;20024;-80
2021/05/25 02:43:27;;;;;;;3.45;1.00;;;8.90;99.90;;;;;;5043362;28;20033;-84
2021/05/25 02:45:54;;;;;;;1.45;0.77;;;8.80;99.90;;;;;;5049681;28;20028;-79
2021/05/25 02:48:20;;;;;;;2.15;0.70;;;;;;;;;;5043158;28;20119;-81
2021/05/25 02:50:47;;;;;;;1.65;0.60;;;8.90;99.90;;;;;;5044413;28;20029;-82
2021/05/25 02:53:13;;;;;;;1.23;0.75;;;8.90;99.90;;;;;;5050506;28;20024;-81
2021/05/25 02:55:40;;;;;;;3.63;1.10;;;8.90;99.90;;;;;;5054250;28;20028;-82
2021/05/25 02:58:08;;;;;;;2.30;0.60;;;8.80;99.90;;;;;;5048327;28;20020;-80
2021/05/25 03:00:39;;;;;;;4.25;0.95;;;8.80;99.90;;;;;;5059831;28;20021;-83
2021/05/25 03:03:06;;;;;;;5.55;0.95;;;8.80;99.90;;;;;;5064702;28;20066;-81
2021/05/25 03:05:32;;;;;;;4.00;1.00;;;8.80;99.90;;;;;;5049751;28;20016;-83
2021/05/25 03:08:02;;;;;;;2.20;0.77;;;8.90;99.90;;;;;;5057053;28;20025;-79
2021/05/25 03:10:30;;;;;;;2.28;0.93;;;8.80;99.90;;;;;;5063582;28;20064;-78
2021/05/25 03:12:56;;;;;;;3.10;0.80;;;8.90;99.90;;;;;;5060896;28;20047;-80
2021/05/25 03:15:30;;;;;;;2.33;0.93;;;8.90;99.90;;;;;;5059165;28;20025;-81
2021/05/25 03:17:56;;;;;;;4.57;1.15;;;;;;;;;;5049489;28;20411;-80
2021/05/25 03:20:24;;;;;;;3.38;1.10;;;;;;;;;;5062157;28;20036;-81
2021/05/25 03:22:50;;;;;;;2.47;0.70;;;;;;;;;;5047017;28;20021;-82
2021/05/25 03:25:17;;;;;;;2.20;1.02;;;;;;;;;;5061477;28;20025;-80
2021/05/25 03:27:44;;;;;;;2.85;0.70;;;;;;;;;;5047159;28;20043;-81
2021/05/25 03:30:12;;;;;;;2.58;0.98;;;;;;;;;;5048842;28;20118;-80
2021/05/25 03:32:38;;;;;;;2.33;1.00;;;;;;;;;;5061764;28;20044;-81
2021/05/25 03:35:06;;;;;;;0.98;0.73;;;;;;;;;;5051021;28;20033;-83
2021/05/25 03:37:32;;;;;;;2.47;0.90;;;;;;;;;;5048922;28;20039;-80
2021/05/25 03:39:58;;;;;;;2.00;0.75;;;;;;;;;;5044325;28;20033;-82
2021/05/25 03:42:24;;;;;;;5.50;1.25;;;;;;;;;;5064803;28;20389;-80
2021/05/25 03:44:50;;;;;;;2.60;0.77;;;;;;;;;;5064659;28;20040;-81
2021/05/25 03:47:18;;;;;;;3.65;0.80;;;;;;;;;;5060522;28;20090;-83
2021/05/25 03:49:46;;;;;;;3.30;1.00;;;;;;;;;;5066668;28;20098;-78
2021/05/25 03:52:12;;;;;;;4.07;1.08;;;;;;;;;;5047059;28;20040;-82
2021/05/25 03:54:44;;;;;;;1.17;0.70;;;;;;;;;;5046333;28;20122;-78
2021/05/25 03:59:55;;;;;;;4.47;1.00;;;8.70;99.90;;;;;;5068053;28;20036;-84
2021/05/25 04:02:21;;;;;;;3.65;1.00;;;8.80;99.90;;;;;;5049398;28;20032;-82
2021/05/25 04:04:47;;;;;;;3.05;0.88;;;;;;;;;;5065750;28;20082;-81
2021/05/25 04:07:13;;;;;;;2.28;0.82;;;8.80;99.90;;;;;;5067928;28;20066;-81
2021/05/25 04:09:40;;;;;;;2.53;0.80;;;;;;;;;;5047430;28;20037;-83
2021/05/25 04:12:06;;;;;;;5.20;0.90;;;8.70;99.90;;;;;;5052039;28;20044;-86
2021/05/25 04:14:32;;;;;;;2.88;1.00;;;8.70;99.90;;;;;;5059705;28;21055;-79
2021/05/25 04:16:58;;;;;;;2.72;0.98;;;;;;;;;;5046966;28;20033;-82
2021/05/25 04:19:24;;;;;;;2.28;0.88;;;8.90;99.90;;;;;;5047953;28;20037;-81
2021/05/25 04:21:50;;;;;;;2.28;0.80;;;;;;;;;;5048104;28;20040;-81
2021/05/25 04:24:16;;;;;;;5.15;1.23;;;;;;;;;;5064013;28;20551;-80
2021/05/25 04:26:41;;;;;;;3.50;1.00;;;8.90;99.90;;;;;;5051777;28;20033;-85
2021/05/25 04:29:07;;;;;;;3.03;1.00;;;9.00;99.90;;;;;;5046702;28;20071;-81
2021/05/25 04:31:33;;;;;;;2.00;0.95;;;;;;;;;;5045938;28;20594;-81
2021/05/25 04:33:59;;;;;;;2.53;0.80;;;8.80;99.90;;;;;;5045220;28;20033;-83
2021/05/25 04:36:25;;;;;;;1.25;0.70;;;;;;;;;;5047984;28;20071;-82
2021/05/25 04:38:51;;;;;;;2.58;0.90;;;9.00;99.90;;;;;;5049170;28;20032;-82
2021/05/25 04:41:17;;;;;;;3.30;0.90;;;;;;;;;;5050207;28;20043;-84
2021/05/25 04:43:43;;;;;;;2.83;0.88;;;9.00;99.90;;;;;;5055070;28;20033;-81
2021/05/25 04:46:08;;;;;;;3.20;0.93;;;9.00;99.90;;;;;;5048406;28;20100;-81
2021/05/25 04:48:34;;;;;;;3.55;1.02;;;;;;;;;;5061317;28;20017;-81
2021/05/25 04:51:00;;;;;;;1.77;0.88;;;9.00;99.90;;;;;;5050536;28;20441;-80
2021/05/25 04:53:26;;;;;;;4.32;1.00;;;9.00;99.90;;;;;;5054242;28;20090;-81
2021/05/25 04:55:54;;;;;;;5.05;0.95;;;8.70;99.90;;;;;;5050346;28;20029;-83
2021/05/25 04:58:19;;;;;;;4.28;1.10;;;8.70;99.90;;;;;;5046088;28;20025;-79
2021/05/25 05:00:45;;;;;;;2.50;1.10;;;;;;;;;;5052734;28;20032;-80
2021/05/25 05:03:11;;;;;;;2.63;0.85;;;8.70;99.90;;;;;;5047447;28;20119;-83
2021/05/25 05:05:37;;;;;;;4.50;1.08;;;;;;;;;;5053614;28;20068;-82
2021/05/25 05:08:06;;;;;;;1.90;0.90;;;8.60;99.90;;;;;;5049652;28;20404;-79
2021/05/25 05:10:32;;;;;;;2.75;1.15;;;;;;;;;;5050889;28;20028;-81
2021/05/25 05:12:58;;;;;;;4.07;0.95;;;;;;;;;;5051887;28;20116;-84
2021/05/25 05:15:23;;;;;;;2.53;0.90;;;;;;;;;;5055848;28;20822;-81
2021/05/25 05:17:50;;;;;;;3.17;0.85;;;;;;;;;;5057616;28;20119;-79
2021/05/25 05:20:16;;;;;;;2.00;0.90;;;8.60;99.90;;;;;;5050468;28;20024;-80
2021/05/25 05:22:42;;;;;;;2.45;0.90;;;8.60;99.90;;;;;;5045553;28;20041;-79
2021/05/25 05:25:10;;;;;;;2.28;0.90;;;8.50;99.90;;;;;;5044965;28;20434;-81
2021/05/25 05:27:36;;;;;;;1.25;0.75;;;8.60;99.90;;;;;;5044932;28;20035;-82
2021/05/25 05:30:03;;;;;;;2.22;0.70;;;8.70;99.90;;;;;;5063866;28;20032;-83
2021/05/25 05:32:31;;;;;;;0.80;0.50;;;8.70;99.90;;;;;;5051825;28;20082;-79
2021/05/25 05:34:57;;;;;;;3.25;1.23;;;8.80;99.90;;;;;;5053426;28;20033;-81
2021/05/25 05:37:22;;;;;;;3.63;0.73;;;8.80;99.90;;;;;;5065841;28;20039;-82
2021/05/25 05:39:48;;;;;;;2.33;0.77;;;;;;;;;;5068072;28;20040;-83
2021/05/25 05:42:15;;;;;;;2.33;0.80;;;;;;;;;;5067333;28;20073;-82
2021/05/25 05:44:41;;;;;;;1.95;0.70;;;8.80;99.90;;;;;;5056250;28;20029;-83
2021/05/25 05:47:09;;;;;;;2.92;0.70;;;8.90;99.90;;;;;;5052260;28;20124;-78
2021/05/25 05:49:37;;;;;;;4.22;0.98;;;;;;;;;;5067720;28;20468;-79
2021/05/25 05:52:02;;;;;;;3.03;0.68;;;8.90;99.90;;;;;;5049444;28;20024;-81
2021/05/25 05:54:28;;;;;;;2.03;1.70;;;;;;;;;;5044536;28;20345;-84
2021/05/25 05:56:54;;;;;;;3.47;0.88;;;8.70;99.90;;;;;;5043683;28;20025;-79
2021/05/25 05:59:20;;;;;;;4.00;0.70;;;8.70;99.90;;;;;;5040042;28;20082;-78
2021/05/25 06:01:46;;;;;;;1.55;0.68;;;8.80;99.90;;;;;;5065957;28;20025;-80
2021/05/25 06:04:11;;;;;;;3.22;0.85;;;8.80;99.90;;;;;;5046843;28;20363;-80
2021/05/25 06:06:37;;;;;;;2.92;0.70;;;8.70;99.90;;;;;;5041598;28;20499;-80
2021/05/25 06:09:04;;;;;;;1.52;0.70;;;8.80;99.90;;;;;;5041472;28;20059;-79
2021/05/25 06:11:29;;;;;;;2.88;1.05;;;8.80;99.90;;;;;;5044893;28;20090;-81
2021/05/25 06:13:58;;;;;;;4.85;0.98;;;8.80;99.90;;;;;;5048401;28;20032;-77
2021/05/25 06:16:24;;;;;;;2.30;0.90;;;8.80;99.90;;;;;;5060336;28;20158;-82
2021/05/25 06:18:50;;;;;;;2.35;0.93;;;;;;;;;;5043004;28;20067;-81
2021/05/25 06:21:16;;;;;;;5.20;1.05;;;;;;;;;;5039341;28;20027;-80
2021/05/25 06:23:41;;;;;;;3.60;1.15;;;8.80;99.90;;;;;;5041360;28;20123;-80
2021/05/25 06:26:07;;;;;;;3.65;1.10;;;;;;;;;;5047968;28;20032;-82
2021/05/25 06:28:33;;;;;;;4.38;0.70;;;8.70;99.90;;;;;;5045169;28;20070;-81
2021/05/25 06:31:00;;;;;;;2.50;0.80;;;8.70;99.90;;;;;;5046186;28;20021;-79
2021/05/25 06:33:26;;;;;;;1.33;0.60;;;8.70;99.90;;;;;;5046753;28;20023;-78
2021/05/25 06:35:52;;;;;;;3.35;0.90;;;8.70;99.90;;;;;;5043950;28;20025;-82
2021/05/25 06:38:18;;;;;;;2.40;0.80;;;8.60;99.90;;;;;;5053704;28;20051;-80
2021/05/25 06:40:44;;;;;;;2.13;0.73;;;8.70;99.90;;;;;;5057793;28;20458;-79
2021/05/25 06:43:10;;;;;;;4.68;0.80;;;;;;;;;;5049460;28;20032;-81
2021/05/25 06:45:36;;;;;;;1.88;0.73;;;;;;;;;;5058568;28;20051;-81
2021/05/25 06:48:02;;;;;;;3.70;0.93;;;8.80;99.90;;;;;;5044950;28;20024;-83
2021/05/25 06:50:28;;;;;;;2.38;0.80;;;;;;;;;;5044060;28;20021;-82
2021/05/25 06:52:54;;;;;;;1.70;0.70;;;;;;;;;;5060535;28;20025;-79
2021/05/25 06:55:20;;;;;;;2.35;0.90;;;;;;;;;;5041718;28;20020;-84
2021/05/25 06:57:45;;;;;;;1.83;0.82;;;8.70;99.90;;;;;;5043951;28;20025;-84
2021/05/25 07:00:12;;;;;;;4.20;1.60;;;8.70;99.90;;;;;;5048588;28;20987;-79
2021/05/25 07:02:38;;;;;;;1.30;0.60;;;8.80;99.90;;;;;;5046365;28;20029;-84
2021/05/25 07:05:06;;;;;;;2.55;0.80;;;8.80;99.90;;;;;;5046683;28;20082;-79
2021/05/25 07:07:32;;;;;;;1.00;0.70;;;9.40;99.90;;;;;;5066340;28;20020;-79
2021/05/25 07:09:57;;;;;;;3.00;0.80;;;8.70;99.90;;;;;;5028267;28;20029;-80
2021/05/25 07:12:23;;;;;;;3.83;0.98;;;;;;;;;;5045152;28;20037;-80
2021/05/25 07:14:49;;;;;;;1.48;0.80;;;;;;;;;;5046017;28;20910;-80
2021/05/25 07:17:15;;;;;;;3.22;1.05;;;8.80;99.90;;;;;;5050085;28;20509;-82
2021/05/25 07:19:41;;;;;;;2.97;0.80;;;;;;;;;;5038743;28;20028;-80
2021/05/25 07:22:07;;;;;;;4.13;2.13;;;9.00;99.90;;;;;;5046668;28;20487;-79
2021/05/25 07:24:33;;;;;;;2.33;0.70;;;;;;;;;;5065749;28;20023;-77
2021/05/25 07:26:59;;;;;;;4.03;0.95;;;9.00;99.90;;;;;;5041944;28;20074;-80
2021/05/25 07:29:25;;;;;;;4.80;0.85;;;10.80;99.90;;;;;;5041808;28;20031;-78
2021/05/25 07:31:51;;;;;;;2.40;1.08;;;;;;;;;;5059678;28;20028;-81
2021/05/25 07:34:18;;;;;;;2.25;0.88;;;8.80;99.90;;;;;;5043935;28;20025;-82
2021/05/25 07:36:47;;;;;;;1.00;0.70;;;8.90;99.90;;;;;;5045287;28;20044;-79
2021/05/25 07:39:13;;;;;;;3.70;1.02;;;9.00;99.90;;;;;;5048447;28;20033;-80
2021/05/25 07:41:39;;;;;;;2.22;0.80;;;9.00;99.90;;;;;;5061046;28;20453;-78
2021/05/25 07:44:05;;;;;;;2.83;0.90;;;;;;;;;;5045300;28;20037;-80
2021/05/25 07:46:31;;;;;;;5.32;1.02;;;9.00;99.90;;;;;;5045376;28;20113;-83
2021/05/25 07:48:57;;;;;;;2.15;0.80;;;9.30;99.90;;;;;;5059425;28;20092;-79
2021/05/25 07:51:24;;;;;;;2.17;0.80;;;9.30;99.90;;;;;;5057540;28;20029;-78
2021/05/25 07:53:50;;;;;;;3.67;1.08;;;9.30;99.90;;;;;;5040359;28;20494;-80
2021/05/25 07:56:18;;;;;;;2.53;1.02;;;9.20;99.90;;;;;;5060783;28;20028;-82
2021/05/25 07:58:44;;;;;;;2.88;0.90;;;9.40;99.90;;;;;;5057383;28;20365;-79
2021/05/25 08:01:10;;;;;;;3.10;1.40;;;;;;;;;;5032604;28;20036;-85
2021/05/25 08:03:36;;;;;;;4.32;1.55;;;;;;;;;;5037538;28;20037;-82
2021/05/25 08:06:03;;;;;;;4.25;1.40;;;9.50;99.90;;;;;;5040197;28;20082;-80
2021/05/25 08:08:32;;;;;;;4.10;1.10;;;;;;;;;;5040797;28;20090;-83
2021/05/25 08:10:58;;;;;;;7.35;1.70;;;9.50;99.90;;;;;;5046186;28;20474;-82
2021/05/25 08:13:24;;;;;;;4.25;1.55;;;;;;;;;;5045510;28;20135;-80
2021/05/25 08:15:51;;;;;;;6.47;1.80;;;;;;;;;;5050771;28;20035;-81
2021/05/25 08:20:46;;;;;;;1.90;1.10;;;;;;;;;;5056125;28;20712;-82
2021/05/25 08:23:13;;;;;;;4.57;1.15;;;9.50;99.90;;;;;;5057455;28;20099;-83
2021/05/25 08:25:41;;;;;;;3.67;1.38;;;9.40;99.90;;;;;;5038147;28;20070;-83
2021/05/25 08:28:08;;;;;;;4.68;1.45;;;9.50;99.90;;;;;;5028807;28;20029;-82
2021/05/25 08:30:37;;;;;;;2.30;1.00;;;9.40;99.90;;;;;;5031449;28;20024;-81
2021/05/25 08:33:07;;;;;;;5.38;1.60;;;9.50;99.90;;;;;;5036177;28;20169;-80
2021/05/25 08:35:35;;;;;;;5.35;1.73;;;9.50;99.90;;;;;;5036260;28;20036;-79
2021/05/25 08:38:02;;;;;;;7.20;1.67;;;9.60;99.90;;;;;;5059150;28;20075;-81
2021/05/25 08:40:29;;;;;;;4.13;2.05;;;9.60;99.90;;;;;;5037969;28;20056;-77
2021/05/25 08:42:55;;;;;;;8.25;1.80;;;9.70;99.90;;;;;;5049111;28;20025;-81
2021/05/25 08:45:22;;;;;;;7.18;1.80;;;9.70;99.90;;;;;;5055370;28;20556;-82
2021/05/25 08:47:50;;;;;;;4.70;1.45;;;9.80;99.90;;;;;;5030218;28;20033;-81
2021/05/25 08:50:21;;;;;;;6.47;1.45;;;9.90;99.90;;;;;;5057283;28;20023;-81
2021/05/25 08:52:47;;;;;;;5.55;1.60;;;9.90;99.90;;;;;;5041586;28;20771;-82
2021/05/25 08:55:14;;;;;;;5.90;1.83;;;10.10;99.90;;;;;;5042870;28;20028;-79
2021/05/25 08:57:40;;;;;;;5.07;1.70;;;10.10;99.90;;;;;;5045426;28;20033;-81
2021/05/25 09:00:08;;;;;;;3.70;1.17;;;10.40;99.90;;;;;;5038576;28;20029;-84
2021/05/25 09:02:34;;;;;;;3.03;1.17;;;10.40;99.90;;;;;;5058292;28;20120;-81
2021/05/25 09:05:20;;;;;;;4.00;1.20;;;10.40;99.90;;;;;;5043145;28;20079;-80
2021/05/25 09:07:59;;;;;;;6.05;1.23;;;10.40;99.90;;;;;;5046373;28;20028;-81
2021/05/25 09:10:50;;;;;;;3.63;1.30;;;10.20;99.90;;;;;;5062250;28;20048;-83
2021/05/25 09:13:20;;;;;;;4.30;2.08;;;10.20;99.90;;;;;;5046778;28;20039;-82
2021/05/25 09:15:46;;;;;;;2.72;1.45;;;;;;;;;;5045064;28;20040;-79
2021/05/25 09:18:12;;;;;;;3.67;1.40;;;10.30;99.90;;;;;;5044989;28;20391;-82
2021/05/25 09:20:58;;;;;;;4.80;2.13;;;10.30;99.90;;;;;;5041599;28;20120;-80
2021/05/25 09:23:44;;;;;;;3.65;1.38;;;10.40;99.90;;;;;;5063292;28;20127;-84
2021/05/25 09:26:16;;;;;;;6.53;1.98;;;10.40;99.90;;;;;;5047311;28;20029;-82
2021/05/25 09:29:02;;;;;;;5.30;1.83;;;10.40;99.90;;;;;;5056911;28;20636;-79
2021/05/25 09:31:45;;;;;;;5.38;1.73;;;10.50;99.90;;;;;;5037789;28;20025;-78
2021/05/25 09:34:14;;;;;;;5.25;1.90;;;;;;;;;;5056876;28;20052;-83
2021/05/25 09:36:58;;;;;;;5.88;1.27;;;;;;;;;;5045616;28;20037;-83
2021/05/25 09:39:29;;;;;;;5.85;1.35;;;10.60;99.90;;;;;;5041554;28;20032;-79
2021/05/25 09:42:05;;;;;;;4.90;1.58;;;10.70;99.90;;;;;;5055623;28;20087;-84
2021/05/25 09:44:31;;;;;;;9.23;1.60;;;;;;;;;;5065435;28;20135;-82
2021/05/25 09:47:04;;;;;;;4.43;1.63;;;;;;;;;;5043166;28;20032;-80
2021/05/25 09:49:30;;;;;;;3.65;1.70;;;;;;;;;;5065360;28;20032;-82
2021/05/25 09:52:11;;;;;;;5.07;1.52;;;11.30;99.90;;;;;;5049440;28;20052;-84
2021/05/25 09:54:38;;;;;;;3.50;1.50;;;;;;;;;;5062655;28;20037;-82
2021/05/25 09:57:06;;;;;;;6.15;1.70;;;11.10;99.90;;;;;;5043821;28;20294;-77
2021/05/25 09:59:41;;;;;;;5.97;2.17;;;11.10;99.90;;;;;;5040770;28;20040;-79
2021/05/25 10:02:19;;;;;;;20.08;9.95;;;11.00;99.90;;;;;;5060072;28;20490;-78
2021/05/25 10:05:19;;;;;;;6.75;1.95;;;10.90;99.90;;;;;;5061011;28;20402;-82
2021/05/25 10:07:45;;;;;;;2.85;1.48;;;10.80;99.90;;;;;;5009466;28;20506;-81
2021/05/25 10:10:12;;;;;;;3.83;1.38;;;10.90;99.90;;;;;;5041664;28;20329;-79
2021/05/25 10:12:38;;;;;;;6.65;1.58;;;;;;;;;;5047071;28;20044;-80
2021/05/25 10:15:05;;;;;;;6.63;1.60;;;11.10;99.90;;;;;;5059047;28;20028;-81
2021/05/25 10:20:04;;;;;;;4.20;2.08;;;11.50;99.90;;;;;;5059533;28;20040;-81
2021/05/25 10:22:30;;;;;;;7.55;2.00;;;12.00;99.90;;;;;;5043706;28;20745;-80
2021/05/25 10:24:57;;;;;;;2.47;1.05;;;12.30;99.90;;;;;;5059078;28;20028;-79
2021/05/25 10:27:23;;;;;;;5.97;1.20;;;;;;;;;;5039818;28;20112;-81
2021/05/25 10:29:49;;;;;;;5.00;1.50;;;;;;;;;;5041229;28;20080;-79
2021/05/25 10:32:22;;;;;;;4.30;1.35;;;12.70;99.90;;;;;;5060551;28;20490;-80
2021/05/25 10:34:52;;;;;;;7.30;1.40;;;12.90;99.90;;;;;;5045137;28;20453;-83
2021/05/25 10:37:18;;;;;;;5.03;1.23;;;;;;;;;;5041093;28;20029;-81
2021/05/25 10:39:45;;;;;;;6.07;1.30;;;13.10;99.90;;;;;;5043724;28;20032;-82
2021/05/25 10:42:14;;;;;;;3.17;1.20;;;13.10;99.90;;;;;;5058610;28;20134;-80
2021/05/25 10:44:46;;;;;;;3.22;1.13;;;13.00;99.90;;;;;;5049485;28;20059;-83
2021/05/25 10:47:52;;;;;;;5.07;1.83;;;13.10;99.90;;;;;;5054393;28;20024;-75
2021/05/25 10:52:55;;;;;;;5.40;1.25;;;13.30;97.80;;;;;;5052519;28;20541;-79
2021/05/25 10:55:28;;;;;;;3.63;1.30;;;13.30;98.00;;;;;;5048636;28;20120;-78
2021/05/25 10:57:54;;;;;;;2.47;0.95;;;13.30;97.20;;;;;;5047230;28;20225;-74
2021/05/25 11:00:20;;;;;;;2.88;1.10;;;;;;;;;;5051802;28;20119;-76
2021/05/25 11:02:54;;;;;;;2.45;1.05;;;13.60;95.90;;;;;;5053183;28;20042;-77
2021/05/25 11:05:35;;;;;;;3.40;1.00;;;13.70;96.00;;;;;;5022391;28;20082;-76
2021/05/25 11:08:07;;;;;;;3.72;1.05;;;13.80;96.10;;;;;;5030033;28;20511;-77
2021/05/25 11:10:50;;;;;;;2.80;1.20;;;13.90;95.10;;;;;;5045412;28;20071;-76
2021/05/25 11:13:17;;;;;;;7.90;1.48;;;;;;;;;;5037532;28;20547;-78
2021/05/25 11:16:21;;;;;;;2.60;1.35;;;13.70;95.90;;;;;;5057243;28;20031;-74
2021/05/25 11:18:57;;;;;;;3.30;0.93;;;13.60;94.30;;;;;;5035835;28;20029;-81
2021/05/25 11:22:02;;;;;;;2.97;0.93;;;13.90;94.50;;;;;;5032524;28;20435;-81
2021/05/25 11:24:42;;;;;;;3.75;0.93;;;13.90;93.20;;;;;;5047058;28;20458;-81
2021/05/25 11:27:28;;;;;;;2.53;0.80;;;14.10;93.10;;;;;;5049392;28;20387;-76
2021/05/25 11:29:56;;;;;;;1.73;1.00;;;;;;;;;;5033325;28;20025;-75
2021/05/25 11:32:22;;;;;;;1.95;0.60;;;;;;;;;;5030554;28;20646;-77
2021/05/25 11:34:59;;;;;;;2.50;1.17;;;14.50;91.40;;;;;;5042656;28;20078;-77
2021/05/25 11:37:26;;;;;;;2.30;0.77;;;14.50;90.30;;;;;;5048605;28;20534;-76
2021/05/25 11:39:55;;;;;;;5.80;1.52;;;14.50;90.30;;;;;;5053607;28;20040;-75
2021/05/25 11:42:31;;;;;;;3.03;0.95;;;14.40;90.30;;;;;;5051305;28;20028;-74
2021/05/25 11:44:57;;;;;;;1.90;0.75;;;;;;;;;;5047693;28;20043;-81
2021/05/25 11:47:24;;;;;;;1.98;0.98;;;14.30;90.10;;;;;;5049049;28;20032;-76
2021/05/25 11:49:50;;;;;;;3.70;1.10;;;;;;;;;;5045458;28;20117;-77
2021/05/25 11:52:25;;;;;;;4.28;0.90;;;14.20;91.00;;;;;;5054860;28;20048;-79
2021/05/25 11:54:54;;;;;;;5.53;1.10;;;13.90;93.80;;;;;;5022082;28;20119;-78
2021/05/25 11:57:25;;;;;;;3.40;1.23;;;13.90;93.40;;;;;;5048846;28;20086;-81
2021/05/25 11:59:51;;;;;;;;;;;14.00;93.00;;;;;;5051581;28;20111;-78
2021/05/25 12:02:27;;;;;;;3.55;1.10;;;14.10;92.50;;;;;;5052456;28;19922;-81
2021/05/25 12:05:08;;;;;;;4.32;1.30;;;14.40;92.80;;;;;;5034571;28;20189;-79
2021/05/25 12:07:34;;;;;;;4.43;1.00;;;;;;;;;;5033870;28;20391;-81
2021/05/25 12:10:02;;;;;;;3.15;1.27;;;;;;;;;;5034314;28;20168;-79
2021/05/25 12:12:31;;;;;;;2.70;1.35;;;;;;;;;;5035423;28;20503;-81
2021/05/25 12:15:12;;;;;;;2.60;0.93;;;15.00;91.10;;;;;;5049098;28;20502;-79
2021/05/25 12:17:43;;;;;;;3.13;0.80;;;15.20;90.30;;;;;;5031666;28;20028;-80
2021/05/25 12:20:16;;;;;;;3.78;0.88;;;;;;;;;;5043884;28;20059;-78
2021/05/25 12:22:42;;;;;;;2.90;1.13;;;;;;;;;;5059330;28;20041;-78
2021/05/25 12:25:19;;;;;;;4.18;1.08;;;14.80;90.70;;;;;;5039304;28;20036;-80
2021/05/25 12:27:46;;;;;;;4.50;1.13;;;14.90;89.60;;;;;;5041111;28;20261;-81
2021/05/25 12:30:15;;;;;;;2.97;0.90;;;14.70;86.70;;;;;;5040816;28;21993;-77
2021/05/25 12:32:43;;;;;;;2.80;0.88;;;14.70;84.60;;;;;;5051622;28;20036;-81
2021/05/25 12:35:09;;;;;;;1.38;0.57;;;14.80;83.20;;;;;;5036308;28;20049;-78
2021/05/25 12:37:35;;;;;;;2.13;0.85;;;;;;;;;;5043766;28;20032;-78
2021/05/25 12:40:05;;;;;;;1.73;0.68;;;15.20;80.30;;;;;;5035240;28;20032;-78
2021/05/25 12:42:35;;;;;;;0.88;0.60;;;15.50;80.90;;;;;;5057489;28;20079;-79
2021/05/25 12:45:05;;;;;;;;;;;15.80;80.00;;;;;;5030735;28;20437;-76
2021/05/25 12:47:58;;;;;;;3.55;0.75;;;15.80;79.70;;;;;;5034925;28;19920;-81
2021/05/25 12:50:25;;;;;;;3.58;1.55;;;16.10;78.20;;;;;;5055805;28;20035;-79
2021/05/25 12:53:16;;;;;;;8.30;3.58;;;16.10;79.00;;;;;;5042532;28;20029;-78
2021/05/25 12:56:03;;;;;;;2.95;0.60;;;16.20;77.90;;;;;;5056683;28;20036;-78
2021/05/25 12:58:48;;;;;;;3.05;0.75;;;16.10;77.80;;;;;;5052213;28;20028;-77
2021/05/25 13:01:30;;;;;;;4.55;0.70;;;16.00;76.20;;;;;;5050714;28;20403;-78
2021/05/25 13:04:16;;;;;;;2.85;0.75;;;16.00;75.50;;;;;;5033061;28;20036;-76
2021/05/25 13:06:55;;;;;;;5.25;1.13;;;16.00;74.80;;;;;;5026501;28;20029;-78
2021/05/25 13:09:27;;;;;;;4.05;0.98;;;15.90;74.90;;;;;;5034090;28;20032;-77
2021/05/25 13:11:59;;;;;;;3.78;0.80;;;15.90;73.70;;;;;;5034234;28;20585;-77
2021/05/25 13:14:30;;;;;;;3.83;1.25;;;15.80;73.20;;;;;;5038744;28;20036;-79
2021/05/25 13:16:58;;;;;;;4.03;0.82;;;15.70;70.90;;;;;;5059327;28;20353;-78
2021/05/25 13:19:45;;;;;;;1.92;0.77;;;15.60;69.60;;;;;;5057922;28;20035;-76
2021/05/25 13:22:31;;;;;;;2.92;0.80;;;15.70;69.10;;;;;;5053868;28;20029;-76
2021/05/25 13:25:02;;;;;;;1.70;0.57;;;15.80;67.70;;;;;;5048046;28;20415;-76
2021/05/25 13:27:29;;;;;;;2.10;0.55;;;15.90;66.50;;;;;;5037681;28;20024;-78
2021/05/25 13:29:55;;;;;;;2.67;0.80;;;;;;;;;;5050312;28;20487;-79
2021/05/25 13:32:21;;;;;;;2.83;0.80;;;;;;;;;;5042839;28;20020;-79
2021/05/25 13:34:47;;;;;;;0.98;0.50;;;;;;;;;;5033593;28;20032;-81
2021/05/25 13:37:13;;;;;;;3.42;0.70;;;;;;;;;;5034772;28;20032;-77
2021/05/25 13:39:39;;;;;;;2.08;0.93;;;;;;;;;;5036672;28;20239;-75
2021/05/25 13:42:05;;;;;;;2.33;0.90;;;16.60;67.70;;;;;;5040403;28;20038;-77
2021/05/25 13:44:31;;;;;;;1.35;0.80;;;;;;;;;;5025376;28;20036;-78
2021/05/25 13:46:56;;;;;;;2.55;1.15;;;16.30;67.50;;;;;;5036688;28;20032;-79
2021/05/25 13:49:22;;;;;;;2.20;1.02;;;;;;;;;;5040912;28;20376;-80